Airport Name : Buffalo Niagara Intl

Other Name : Buffalo Niagara

ICAO : KBUF

IATA : BUF

FAA : BUF

Latitude : 42.940525

Longitude : -78.732167

Country : United States

Local Date and Time : 25 Jun 2024 01:04

 

TAF (Terminal Aerodrome Forecast)

KBUF 242344Z 2500/2524 22006KT P6SM FEW250 FM250400 22004KT P6SM FEW250 FM251200 20007KT P6SM FEW250 FM251500 21015G22KT P6SM SCT250 FM251700 22016G24KT P6SM BKN250

 

METAR (METeorological Aerodrome Report)

KBUF 250454Z 19006KT 10SM CLR 19/16 A2993 RMK AO2 SLP133 T01890156 402610172

KBUF 250354Z 23008KT 10SM FEW270 21/17 A2994 RMK AO2 SLP134 T02060172

KBUF 250254Z 22011KT 10SM FEW260 21/18 A2993 RMK AO2 SLP132 T02060178 51007

KBUF 250154Z 22009KT 10SM FEW260 21/18 A2993 RMK AO2 SLP131 T02110178